sensor_id;sensor_type;location;lat;lon;timestamp;temperature;humidity
42099;DHT22;27758;55.900;8.516;2022-07-24T00:01:41;10.90;99.90
42099;DHT22;27758;55.900;8.516;2022-07-24T00:04:07;10.80;99.90
42099;DHT22;27758;55.900;8.516;2022-07-24T00:06:33;10.80;99.90
42099;DHT22;27758;55.900;8.516;2022-07-24T00:08:58;10.80;99.90
42099;DHT22;27758;55.900;8.516;2022-07-24T00:11:24;10.70;99.90
42099;DHT22;27758;55.900;8.516;2022-07-24T00:13:50;10.80;99.90
42099;DHT22;27758;55.900;8.516;2022-07-24T00:16:16;10.70;99.90
42099;DHT22;27758;55.900;8.516;2022-07-24T00:18:42;10.70;99.90
42099;DHT22;27758;55.900;8.516;2022-07-24T00:21:08;10.80;99.90
42099;DHT22;27758;55.900;8.516;2022-07-24T00:23:34;10.70;99.90
42099;DHT22;27758;55.900;8.516;2022-07-24T00:26:00;10.70;99.90
42099;DHT22;27758;55.900;8.516;2022-07-24T00:28:26;10.60;99.90
42099;DHT22;27758;55.900;8.516;2022-07-24T00:30:52;10.60;99.90
42099;DHT22;27758;55.900;8.516;2022-07-24T00:33:17;10.70;99.90
42099;DHT22;27758;55.900;8.516;2022-07-24T00:35:43;10.70;99.90
42099;DHT22;27758;55.900;8.516;2022-07-24T00:38:09;10.70;99.90
42099;DHT22;27758;55.900;8.516;2022-07-24T00:40:36;10.70;99.90
42099;DHT22;27758;55.900;8.516;2022-07-24T00:43:02;10.60;99.90
42099;DHT22;27758;55.900;8.516;2022-07-24T00:45:29;10.70;99.90
42099;DHT22;27758;55.900;8.516;2022-07-24T00:47:55;10.70;99.90
42099;DHT22;27758;55.900;8.516;2022-07-24T00:50:21;10.70;99.90
42099;DHT22;27758;55.900;8.516;2022-07-24T00:52:47;10.70;99.90
42099;DHT22;27758;55.900;8.516;2022-07-24T00:55:14;10.70;99.90
42099;DHT22;27758;55.900;8.516;2022-07-24T00:57:40;10.70;99.90
42099;DHT22;27758;55.900;8.516;2022-07-24T01:00:10;10.60;99.90
42099;DHT22;27758;55.900;8.516;2022-07-24T01:02:39;10.60;99.90
42099;DHT22;27758;55.900;8.516;2022-07-24T01:05:08;10.60;99.90
42099;DHT22;27758;55.900;8.516;2022-07-24T01:07:34;10.50;99.90
42099;DHT22;27758;55.900;8.516;2022-07-24T01:10:00;10.50;99.90
42099;DHT22;27758;55.900;8.516;2022-07-24T01:12:26;10.50;99.90
42099;DHT22;27758;55.900;8.516;2022-07-24T01:14:52;10.50;99.90
42099;DHT22;27758;55.900;8.516;2022-07-24T01:17:18;10.50;99.90
42099;DHT22;27758;55.900;8.516;2022-07-24T01:19:45;10.50;99.90
42099;DHT22;27758;55.900;8.516;2022-07-24T01:22:11;10.40;99.90
42099;DHT22;27758;55.900;8.516;2022-07-24T01:24:37;10.40;99.90
42099;DHT22;27758;55.900;8.516;2022-07-24T01:27:03;10.30;99.90
42099;DHT22;27758;55.900;8.516;2022-07-24T01:29:29;10.40;99.90
42099;DHT22;27758;55.900;8.516;2022-07-24T01:31:55;10.40;99.90
42099;DHT22;27758;55.900;8.516;2022-07-24T01:34:21;10.50;99.90
42099;DHT22;27758;55.900;8.516;2022-07-24T01:36:47;10.40;99.90
42099;DHT22;27758;55.900;8.516;2022-07-24T01:39:12;10.50;99.90
42099;DHT22;27758;55.900;8.516;2022-07-24T01:41:38;10.50;99.90
42099;DHT22;27758;55.900;8.516;2022-07-24T01:44:04;10.40;99.90
42099;DHT22;27758;55.900;8.516;2022-07-24T01:46:30;10.50;99.90
42099;DHT22;27758;55.900;8.516;2022-07-24T01:48:56;10.40;99.90
42099;DHT22;27758;55.900;8.516;2022-07-24T01:51:22;10.40;99.90
42099;DHT22;27758;55.900;8.516;2022-07-24T01:53:47;10.50;99.90
42099;DHT22;27758;55.900;8.516;2022-07-24T01:56:13;10.40;99.90
42099;DHT22;27758;55.900;8.516;2022-07-24T01:58:39;10.40;99.90
42099;DHT22;27758;55.900;8.516;2022-07-24T02:01:06;10.40;99.90
42099;DHT22;27758;55.900;8.516;2022-07-24T02:03:32;10.40;99.90
42099;DHT22;27758;55.900;8.516;2022-07-24T02:05:57;10.40;99.90
42099;DHT22;27758;55.900;8.516;2022-07-24T02:08:23;10.40;99.90
42099;DHT22;27758;55.900;8.516;2022-07-24T02:10:49;10.40;99.90
42099;DHT22;27758;55.900;8.516;2022-07-24T02:13:15;10.40;99.90
42099;DHT22;27758;55.900;8.516;2022-07-24T02:15:41;10.30;99.90
42099;DHT22;27758;55.900;8.516;2022-07-24T02:18:07;10.30;99.90
42099;DHT22;27758;55.900;8.516;2022-07-24T02:20:33;10.30;99.90
42099;DHT22;27758;55.900;8.516;2022-07-24T02:22:59;10.30;99.90
42099;DHT22;27758;55.900;8.516;2022-07-24T02:25:24;10.30;99.90
42099;DHT22;27758;55.900;8.516;2022-07-24T02:27:50;10.30;99.90
42099;DHT22;27758;55.900;8.516;2022-07-24T02:30:19;10.30;99.90
42099;DHT22;27758;55.900;8.516;2022-07-24T02:32:45;10.30;99.90
42099;DHT22;27758;55.900;8.516;2022-07-24T02:35:11;10.30;99.90
42099;DHT22;27758;55.900;8.516;2022-07-24T02:37:39;10.40;99.90
42099;DHT22;27758;55.900;8.516;2022-07-24T02:40:07;10.40;99.90
42099;DHT22;27758;55.900;8.516;2022-07-24T02:42:33;10.40;99.90
42099;DHT22;27758;55.900;8.516;2022-07-24T02:44:59;10.40;99.90
42099;DHT22;27758;55.900;8.516;2022-07-24T02:47:25;10.50;99.90
42099;DHT22;27758;55.900;8.516;2022-07-24T02:49:51;10.50;99.90
42099;DHT22;27758;55.900;8.516;2022-07-24T02:52:17;10.70;99.90
42099;DHT22;27758;55.900;8.516;2022-07-24T02:54:43;10.70;99.90
42099;DHT22;27758;55.900;8.516;2022-07-24T02:57:09;10.60;99.90
42099;DHT22;27758;55.900;8.516;2022-07-24T02:59:35;10.60;99.90
42099;DHT22;27758;55.900;8.516;2022-07-24T03:02:00;10.70;99.90
42099;DHT22;27758;55.900;8.516;2022-07-24T03:04:26;10.70;99.90
42099;DHT22;27758;55.900;8.516;2022-07-24T03:06:52;10.70;99.90
42099;DHT22;27758;55.900;8.516;2022-07-24T03:09:18;10.70;99.90
42099;DHT22;27758;55.900;8.516;2022-07-24T03:11:44;10.70;99.90
42099;DHT22;27758;55.900;8.516;2022-07-24T03:14:10;10.70;99.90
42099;DHT22;27758;55.900;8.516;2022-07-24T03:16:36;10.60;99.90
42099;DHT22;27758;55.900;8.516;2022-07-24T03:19:03;10.60;99.90
42099;DHT22;27758;55.900;8.516;2022-07-24T03:21:28;10.60;99.90
42099;DHT22;27758;55.900;8.516;2022-07-24T03:23:54;10.70;99.90
42099;DHT22;27758;55.900;8.516;2022-07-24T03:26:20;10.80;99.90
42099;DHT22;27758;55.900;8.516;2022-07-24T03:28:46;10.70;99.90
42099;DHT22;27758;55.900;8.516;2022-07-24T03:31:12;10.70;99.90
42099;DHT22;27758;55.900;8.516;2022-07-24T03:33:38;10.70;99.90
42099;DHT22;27758;55.900;8.516;2022-07-24T03:36:04;10.70;99.90
42099;DHT22;27758;55.900;8.516;2022-07-24T03:38:30;10.70;99.90
42099;DHT22;27758;55.900;8.516;2022-07-24T03:40:55;10.80;99.90
42099;DHT22;27758;55.900;8.516;2022-07-24T03:43:21;10.80;99.90
42099;DHT22;27758;55.900;8.516;2022-07-24T03:45:47;10.90;99.90
42099;DHT22;27758;55.900;8.516;2022-07-24T03:48:13;11.00;99.90
42099;DHT22;27758;55.900;8.516;2022-07-24T03:50:39;11.00;99.90
42099;DHT22;27758;55.900;8.516;2022-07-24T03:53:05;11.10;99.90
42099;DHT22;27758;55.900;8.516;2022-07-24T03:55:31;11.20;99.90
42099;DHT22;27758;55.900;8.516;2022-07-24T03:57:56;11.20;99.90
42099;DHT22;27758;55.900;8.516;2022-07-24T04:00:22;11.20;99.90
42099;DHT22;27758;55.900;8.516;2022-07-24T04:02:48;11.30;99.90
42099;DHT22;27758;55.900;8.516;2022-07-24T04:05:14;11.40;99.90
42099;DHT22;27758;55.900;8.516;2022-07-24T04:07:43;11.40;99.90
42099;DHT22;27758;55.900;8.516;2022-07-24T04:10:09;11.40;99.90
42099;DHT22;27758;55.900;8.516;2022-07-24T04:12:35;11.50;99.90
42099;DHT22;27758;55.900;8.516;2022-07-24T04:15:01;11.50;99.90
42099;DHT22;27758;55.900;8.516;2022-07-24T04:17:27;11.50;99.90
42099;DHT22;27758;55.900;8.516;2022-07-24T04:19:52;11.50;99.90
42099;DHT22;27758;55.900;8.516;2022-07-24T04:22:18;11.60;99.90
42099;DHT22;27758;55.900;8.516;2022-07-24T04:24:44;11.70;99.90
42099;DHT22;27758;55.900;8.516;2022-07-24T04:27:10;11.80;99.90
42099;DHT22;27758;55.900;8.516;2022-07-24T04:29:36;11.90;99.90
42099;DHT22;27758;55.900;8.516;2022-07-24T04:32:01;12.00;99.90
42099;DHT22;27758;55.900;8.516;2022-07-24T04:34:27;12.10;99.90
42099;DHT22;27758;55.900;8.516;2022-07-24T04:36:53;12.10;99.90
42099;DHT22;27758;55.900;8.516;2022-07-24T04:39:19;12.30;99.90
42099;DHT22;27758;55.900;8.516;2022-07-24T04:41:45;12.40;99.90
42099;DHT22;27758;55.900;8.516;2022-07-24T04:44:11;12.40;99.90
42099;DHT22;27758;55.900;8.516;2022-07-24T04:46:36;12.50;99.90
42099;DHT22;27758;55.900;8.516;2022-07-24T04:49:02;12.60;99.90
42099;DHT22;27758;55.900;8.516;2022-07-24T04:51:28;12.70;99.90
42099;DHT22;27758;55.900;8.516;2022-07-24T04:53:54;12.80;99.90
42099;DHT22;27758;55.900;8.516;2022-07-24T04:56:21;12.90;99.90
42099;DHT22;27758;55.900;8.516;2022-07-24T04:58:47;12.90;99.90
42099;DHT22;27758;55.900;8.516;2022-07-24T05:01:13;13.00;99.90
42099;DHT22;27758;55.900;8.516;2022-07-24T05:03:39;13.10;99.90
42099;DHT22;27758;55.900;8.516;2022-07-24T05:06:06;13.10;99.90
42099;DHT22;27758;55.900;8.516;2022-07-24T05:08:32;13.10;99.90
42099;DHT22;27758;55.900;8.516;2022-07-24T05:10:57;13.30;99.90
42099;DHT22;27758;55.900;8.516;2022-07-24T05:13:23;13.20;99.90
42099;DHT22;27758;55.900;8.516;2022-07-24T05:15:49;13.30;99.90
42099;DHT22;27758;55.900;8.516;2022-07-24T05:18:15;13.50;99.90
42099;DHT22;27758;55.900;8.516;2022-07-24T05:20:41;13.60;99.90
42099;DHT22;27758;55.900;8.516;2022-07-24T05:23:07;13.70;99.90
42099;DHT22;27758;55.900;8.516;2022-07-24T05:25:32;13.80;99.90
42099;DHT22;27758;55.900;8.516;2022-07-24T05:27:58;13.90;99.90
42099;DHT22;27758;55.900;8.516;2022-07-24T05:30:27;14.00;99.90
42099;DHT22;27758;55.900;8.516;2022-07-24T05:32:53;14.10;99.90
42099;DHT22;27758;55.900;8.516;2022-07-24T05:35:19;14.20;99.90
42099;DHT22;27758;55.900;8.516;2022-07-24T05:37:45;14.30;99.90
42099;DHT22;27758;55.900;8.516;2022-07-24T05:40:11;14.40;99.90
42099;DHT22;27758;55.900;8.516;2022-07-24T05:42:37;14.50;99.90
42099;DHT22;27758;55.900;8.516;2022-07-24T05:45:04;14.60;99.90
42099;DHT22;27758;55.900;8.516;2022-07-24T05:47:36;14.70;99.90
42099;DHT22;27758;55.900;8.516;2022-07-24T05:50:05;14.80;99.90
42099;DHT22;27758;55.900;8.516;2022-07-24T05:52:31;14.90;99.90
42099;DHT22;27758;55.900;8.516;2022-07-24T05:54:57;14.90;99.90
42099;DHT22;27758;55.900;8.516;2022-07-24T05:57:23;14.90;99.90
42099;DHT22;27758;55.900;8.516;2022-07-24T05:59:49;15.00;99.90
42099;DHT22;27758;55.900;8.516;2022-07-24T06:02:14;15.00;99.90
42099;DHT22;27758;55.900;8.516;2022-07-24T06:04:40;15.00;99.90
42099;DHT22;27758;55.900;8.516;2022-07-24T06:07:09;15.00;99.90
42099;DHT22;27758;55.900;8.516;2022-07-24T06:09:36;15.00;99.90
42099;DHT22;27758;55.900;8.516;2022-07-24T06:12:03;15.10;99.90
42099;DHT22;27758;55.900;8.516;2022-07-24T06:14:29;15.20;99.90
42099;DHT22;27758;55.900;8.516;2022-07-24T06:16:55;15.20;99.90
42099;DHT22;27758;55.900;8.516;2022-07-24T06:19:21;15.30;99.90
42099;DHT22;27758;55.900;8.516;2022-07-24T06:21:47;15.40;99.90
42099;DHT22;27758;55.900;8.516;2022-07-24T06:24:14;15.40;99.90
42099;DHT22;27758;55.900;8.516;2022-07-24T06:26:40;15.50;99.90
42099;DHT22;27758;55.900;8.516;2022-07-24T06:29:06;15.60;99.90
42099;DHT22;27758;55.900;8.516;2022-07-24T06:31:32;15.70;99.90
42099;DHT22;27758;55.900;8.516;2022-07-24T06:33:58;15.70;99.90
42099;DHT22;27758;55.900;8.516;2022-07-24T06:36:24;15.80;99.90
42099;DHT22;27758;55.900;8.516;2022-07-24T06:38:50;15.80;99.90
42099;DHT22;27758;55.900;8.516;2022-07-24T06:41:16;15.90;99.90
42099;DHT22;27758;55.900;8.516;2022-07-24T06:43:41;16.00;99.90
42099;DHT22;27758;55.900;8.516;2022-07-24T06:46:07;16.00;99.90
42099;DHT22;27758;55.900;8.516;2022-07-24T06:48:33;16.20;99.90
42099;DHT22;27758;55.900;8.516;2022-07-24T06:50:59;16.30;99.90
42099;DHT22;27758;55.900;8.516;2022-07-24T06:53:31;16.40;99.90
42099;DHT22;27758;55.900;8.516;2022-07-24T06:55:57;16.50;99.90
42099;DHT22;27758;55.900;8.516;2022-07-24T06:58:23;16.50;99.90
42099;DHT22;27758;55.900;8.516;2022-07-24T07:00:49;16.60;99.90
42099;DHT22;27758;55.900;8.516;2022-07-24T07:03:15;16.60;99.90
42099;DHT22;27758;55.900;8.516;2022-07-24T07:05:42;16.60;99.90
42099;DHT22;27758;55.900;8.516;2022-07-24T07:08:08;16.60;99.90
42099;DHT22;27758;55.900;8.516;2022-07-24T07:10:34;16.60;99.90
42099;DHT22;27758;55.900;8.516;2022-07-24T07:13:00;16.60;99.90
42099;DHT22;27758;55.900;8.516;2022-07-24T07:15:26;16.70;99.90
42099;DHT22;27758;55.900;8.516;2022-07-24T07:17:52;16.80;99.90
42099;DHT22;27758;55.900;8.516;2022-07-24T07:20:18;16.80;99.90
42099;DHT22;27758;55.900;8.516;2022-07-24T07:22:44;16.90;99.90
42099;DHT22;27758;55.900;8.516;2022-07-24T07:25:10;17.00;99.90
42099;DHT22;27758;55.900;8.516;2022-07-24T07:27:37;17.00;99.90
42099;DHT22;27758;55.900;8.516;2022-07-24T07:30:04;17.00;99.90
42099;DHT22;27758;55.900;8.516;2022-07-24T07:32:30;17.10;99.90
42099;DHT22;27758;55.900;8.516;2022-07-24T07:34:56;17.10;99.90
42099;DHT22;27758;55.900;8.516;2022-07-24T07:37:22;17.20;99.90
42099;DHT22;27758;55.900;8.516;2022-07-24T07:39:48;17.30;99.90
42099;DHT22;27758;55.900;8.516;2022-07-24T07:42:14;17.30;99.90
42099;DHT22;27758;55.900;8.516;2022-07-24T07:44:40;17.40;99.90
42099;DHT22;27758;55.900;8.516;2022-07-24T07:47:05;17.50;99.90
42099;DHT22;27758;55.900;8.516;2022-07-24T07:49:31;17.50;99.90
42099;DHT22;27758;55.900;8.516;2022-07-24T07:51:57;17.60;99.90
42099;DHT22;27758;55.900;8.516;2022-07-24T07:54:23;17.60;99.90
42099;DHT22;27758;55.900;8.516;2022-07-24T07:56:49;17.70;99.90
42099;DHT22;27758;55.900;8.516;2022-07-24T07:59:15;17.90;99.90
42099;DHT22;27758;55.900;8.516;2022-07-24T08:01:41;18.00;99.90
42099;DHT22;27758;55.900;8.516;2022-07-24T08:04:07;18.10;99.90
42099;DHT22;27758;55.900;8.516;2022-07-24T08:06:33;18.10;99.90
42099;DHT22;27758;55.900;8.516;2022-07-24T08:08:58;18.20;99.90
42099;DHT22;27758;55.900;8.516;2022-07-24T08:11:24;18.30;99.90
42099;DHT22;27758;55.900;8.516;2022-07-24T08:13:50;18.40;99.90
42099;DHT22;27758;55.900;8.516;2022-07-24T08:16:16;18.50;99.90
42099;DHT22;27758;55.900;8.516;2022-07-24T08:18:42;18.70;99.90
42099;DHT22;27758;55.900;8.516;2022-07-24T08:21:07;18.80;99.90
42099;DHT22;27758;55.900;8.516;2022-07-24T08:23:33;18.90;99.90
42099;DHT22;27758;55.900;8.516;2022-07-24T08:25:59;19.00;99.90
42099;DHT22;27758;55.900;8.516;2022-07-24T08:28:25;19.10;99.90
42099;DHT22;27758;55.900;8.516;2022-07-24T08:30:51;19.30;99.90
42099;DHT22;27758;55.900;8.516;2022-07-24T08:33:17;19.50;99.90
42099;DHT22;27758;55.900;8.516;2022-07-24T08:35:43;19.60;99.90
42099;DHT22;27758;55.900;8.516;2022-07-24T08:38:09;19.90;99.90
42099;DHT22;27758;55.900;8.516;2022-07-24T08:40:38;20.40;99.90
42099;DHT22;27758;55.900;8.516;2022-07-24T08:43:05;20.50;99.90
42099;DHT22;27758;55.900;8.516;2022-07-24T08:45:39;20.70;99.90
42099;DHT22;27758;55.900;8.516;2022-07-24T08:48:07;20.60;99.90
42099;DHT22;27758;55.900;8.516;2022-07-24T08:50:36;20.70;99.90
42099;DHT22;27758;55.900;8.516;2022-07-24T08:53:04;20.70;99.90
42099;DHT22;27758;55.900;8.516;2022-07-24T08:55:30;20.70;99.90
42099;DHT22;27758;55.900;8.516;2022-07-24T08:58:00;20.50;99.90
42099;DHT22;27758;55.900;8.516;2022-07-24T09:00:29;20.50;99.90
42099;DHT22;27758;55.900;8.516;2022-07-24T09:02:55;20.40;99.90
42099;DHT22;27758;55.900;8.516;2022-07-24T09:05:21;20.50;99.90
42099;DHT22;27758;55.900;8.516;2022-07-24T09:07:47;20.60;99.90
42099;DHT22;27758;55.900;8.516;2022-07-24T09:10:15;20.70;99.90
42099;DHT22;27758;55.900;8.516;2022-07-24T09:12:46;20.80;99.90
42099;DHT22;27758;55.900;8.516;2022-07-24T09:15:20;20.70;99.90
42099;DHT22;27758;55.900;8.516;2022-07-24T09:17:57;20.70;99.90
42099;DHT22;27758;55.900;8.516;2022-07-24T09:20:25;20.70;99.90
42099;DHT22;27758;55.900;8.516;2022-07-24T09:22:53;20.80;99.90
42099;DHT22;27758;55.900;8.516;2022-07-24T09:25:22;20.90;99.90
42099;DHT22;27758;55.900;8.516;2022-07-24T09:27:57;21.10;99.90
42099;DHT22;27758;55.900;8.516;2022-07-24T09:30:41;21.20;99.90
42099;DHT22;27758;55.900;8.516;2022-07-24T09:35:42;21.40;99.90
42099;DHT22;27758;55.900;8.516;2022-07-24T09:38:13;21.50;99.90
42099;DHT22;27758;55.900;8.516;2022-07-24T09:40:40;21.40;99.90
42099;DHT22;27758;55.900;8.516;2022-07-24T09:43:16;21.40;99.90
42099;DHT22;27758;55.900;8.516;2022-07-24T09:46:07;21.50;99.90
42099;DHT22;27758;55.900;8.516;2022-07-24T09:48:52;21.70;99.90
42099;DHT22;27758;55.900;8.516;2022-07-24T09:51:23;21.90;99.90
42099;DHT22;27758;55.900;8.516;2022-07-24T09:53:58;21.90;99.90
42099;DHT22;27758;55.900;8.516;2022-07-24T09:56:25;21.90;99.90
42099;DHT22;27758;55.900;8.516;2022-07-24T09:58:55;22.00;99.90
42099;DHT22;27758;55.900;8.516;2022-07-24T10:01:24;21.90;99.90
42099;DHT22;27758;55.900;8.516;2022-07-24T10:03:52;21.90;99.90
42099;DHT22;27758;55.900;8.516;2022-07-24T10:06:20;21.70;99.90
42099;DHT22;27758;55.900;8.516;2022-07-24T10:08:49;21.60;99.90
42099;DHT22;27758;55.900;8.516;2022-07-24T10:11:16;21.50;99.90
42099;DHT22;27758;55.900;8.516;2022-07-24T10:13:43;21.40;99.90
42099;DHT22;27758;55.900;8.516;2022-07-24T10:18:48;21.50;99.90
42099;DHT22;27758;55.900;8.516;2022-07-24T10:21:26;21.70;99.90
42099;DHT22;27758;55.900;8.516;2022-07-24T10:29:10;23.10;99.90
42099;DHT22;27758;55.900;8.516;2022-07-24T10:31:48;23.10;99.90
42099;DHT22;27758;55.900;8.516;2022-07-24T10:34:36;23.30;99.90
42099;DHT22;27758;55.900;8.516;2022-07-24T10:37:10;23.30;99.90
42099;DHT22;27758;55.900;8.516;2022-07-24T10:39:58;23.30;99.90
42099;DHT22;27758;55.900;8.516;2022-07-24T10:42:27;23.20;99.90
42099;DHT22;27758;55.900;8.516;2022-07-24T10:47:41;23.10;99.90
42099;DHT22;27758;55.900;8.516;2022-07-24T10:50:07;23.00;99.90
42099;DHT22;27758;55.900;8.516;2022-07-24T10:52:34;22.60;99.90
42099;DHT22;27758;55.900;8.516;2022-07-24T10:55:31;22.20;99.90
42099;DHT22;27758;55.900;8.516;2022-07-24T10:57:59;21.80;99.90
42099;DHT22;27758;55.900;8.516;2022-07-24T11:00:30;21.50;99.90
42099;DHT22;27758;55.900;8.516;2022-07-24T11:03:01;21.50;99.90
42099;DHT22;27758;55.900;8.516;2022-07-24T11:05:29;21.50;99.90
42099;DHT22;27758;55.900;8.516;2022-07-24T11:10:49;21.40;99.90
42099;DHT22;27758;55.900;8.516;2022-07-24T11:18:42;21.30;99.90
42099;DHT22;27758;55.900;8.516;2022-07-24T11:21:09;21.20;99.90
42099;DHT22;27758;55.900;8.516;2022-07-24T11:23:35;21.20;99.90
42099;DHT22;27758;55.900;8.516;2022-07-24T11:29:14;21.10;99.90
42099;DHT22;27758;55.900;8.516;2022-07-24T11:31:42;20.80;99.90
42099;DHT22;27758;55.900;8.516;2022-07-24T11:34:09;20.70;99.90
42099;DHT22;27758;55.900;8.516;2022-07-24T11:36:36;20.80;99.90
42099;DHT22;27758;55.900;8.516;2022-07-24T11:39:05;20.50;99.90
42099;DHT22;27758;55.900;8.516;2022-07-24T11:41:52;20.50;99.90
42099;DHT22;27758;55.900;8.516;2022-07-24T11:46:54;20.30;99.90
42099;DHT22;27758;55.900;8.516;2022-07-24T11:49:22;20.30;99.90
42099;DHT22;27758;55.900;8.516;2022-07-24T11:51:51;20.10;99.90
42099;DHT22;27758;55.900;8.516;2022-07-24T11:54:27;20.00;99.90
42099;DHT22;27758;55.900;8.516;2022-07-24T11:56:55;19.90;99.90
42099;DHT22;27758;55.900;8.516;2022-07-24T12:01:51;19.70;99.90
42099;DHT22;27758;55.900;8.516;2022-07-24T12:04:21;19.90;99.90
42099;DHT22;27758;55.900;8.516;2022-07-24T12:06:48;19.90;99.90
42099;DHT22;27758;55.900;8.516;2022-07-24T12:09:14;19.90;99.90
42099;DHT22;27758;55.900;8.516;2022-07-24T12:11:40;20.00;99.90
42099;DHT22;27758;55.900;8.516;2022-07-24T12:14:17;20.00;99.90
42099;DHT22;27758;55.900;8.516;2022-07-24T12:16:43;20.10;99.90
42099;DHT22;27758;55.900;8.516;2022-07-24T12:19:19;20.10;99.90
42099;DHT22;27758;55.900;8.516;2022-07-24T12:21:47;20.10;99.90
42099;DHT22;27758;55.900;8.516;2022-07-24T12:24:13;20.20;99.90
42099;DHT22;27758;55.900;8.516;2022-07-24T12:26:57;20.20;99.90
42099;DHT22;27758;55.900;8.516;2022-07-24T12:29:26;20.50;99.90
42099;DHT22;27758;55.900;8.516;2022-07-24T12:31:54;20.50;99.90
42099;DHT22;27758;55.900;8.516;2022-07-24T12:34:45;20.60;99.90
42099;DHT22;27758;55.900;8.516;2022-07-24T12:37:19;20.70;99.90
42099;DHT22;27758;55.900;8.516;2022-07-24T12:39:52;21.00;99.90
42099;DHT22;27758;55.900;8.516;2022-07-24T12:42:31;21.10;99.90
42099;DHT22;27758;55.900;8.516;2022-07-24T12:45:08;21.00;99.90
42099;DHT22;27758;55.900;8.516;2022-07-24T12:48:08;21.10;99.90
42099;DHT22;27758;55.900;8.516;2022-07-24T12:50:34;21.30;99.90
42099;DHT22;27758;55.900;8.516;2022-07-24T12:53:07;21.40;99.90
42099;DHT22;27758;55.900;8.516;2022-07-24T12:55:35;21.50;99.90
42099;DHT22;27758;55.900;8.516;2022-07-24T12:58:03;21.70;99.90
42099;DHT22;27758;55.900;8.516;2022-07-24T13:00:30;21.60;99.90
42099;DHT22;27758;55.900;8.516;2022-07-24T13:02:57;21.40;99.90
42099;DHT22;27758;55.900;8.516;2022-07-24T13:05:42;21.20;99.90
42099;DHT22;27758;55.900;8.516;2022-07-24T13:08:12;21.30;99.90
42099;DHT22;27758;55.900;8.516;2022-07-24T13:10:38;21.60;99.90
42099;DHT22;27758;55.900;8.516;2022-07-24T13:13:04;21.60;99.90
42099;DHT22;27758;55.900;8.516;2022-07-24T13:15:29;21.60;99.90
42099;DHT22;27758;55.900;8.516;2022-07-24T13:17:55;21.80;99.90
42099;DHT22;27758;55.900;8.516;2022-07-24T13:20:21;21.70;99.90
42099;DHT22;27758;55.900;8.516;2022-07-24T13:22:47;21.70;99.90
42099;DHT22;27758;55.900;8.516;2022-07-24T13:25:13;21.70;99.90
42099;DHT22;27758;55.900;8.516;2022-07-24T13:27:39;21.60;99.90
42099;DHT22;27758;55.900;8.516;2022-07-24T13:30:05;21.60;99.90
42099;DHT22;27758;55.900;8.516;2022-07-24T13:32:31;21.50;99.90
42099;DHT22;27758;55.900;8.516;2022-07-24T13:34:57;21.40;99.90
42099;DHT22;27758;55.900;8.516;2022-07-24T13:37:23;21.20;99.90
42099;DHT22;27758;55.900;8.516;2022-07-24T13:39:49;21.10;99.90
42099;DHT22;27758;55.900;8.516;2022-07-24T13:42:15;20.90;99.90
42099;DHT22;27758;55.900;8.516;2022-07-24T13:44:41;20.80;99.90
42099;DHT22;27758;55.900;8.516;2022-07-24T13:47:07;20.80;99.90
42099;DHT22;27758;55.900;8.516;2022-07-24T13:49:33;20.80;99.90
42099;DHT22;27758;55.900;8.516;2022-07-24T13:51:59;20.90;99.90
42099;DHT22;27758;55.900;8.516;2022-07-24T13:54:25;21.00;99.90
42099;DHT22;27758;55.900;8.516;2022-07-24T13:56:52;21.00;99.90
42099;DHT22;27758;55.900;8.516;2022-07-24T13:59:18;21.00;99.90
42099;DHT22;27758;55.900;8.516;2022-07-24T14:01:44;21.10;99.90
42099;DHT22;27758;55.900;8.516;2022-07-24T14:04:10;21.00;99.90
42099;DHT22;27758;55.900;8.516;2022-07-24T14:06:36;21.10;99.90
42099;DHT22;27758;55.900;8.516;2022-07-24T14:09:05;21.10;99.90
42099;DHT22;27758;55.900;8.516;2022-07-24T14:11:31;21.20;99.90
42099;DHT22;27758;55.900;8.516;2022-07-24T14:13:58;21.20;99.90
42099;DHT22;27758;55.900;8.516;2022-07-24T14:16:25;21.00;99.90
42099;DHT22;27758;55.900;8.516;2022-07-24T14:18:51;21.00;99.90
42099;DHT22;27758;55.900;8.516;2022-07-24T14:21:16;21.10;99.90
42099;DHT22;27758;55.900;8.516;2022-07-24T14:23:42;21.10;99.90
42099;DHT22;27758;55.900;8.516;2022-07-24T14:26:08;21.10;99.90
42099;DHT22;27758;55.900;8.516;2022-07-24T14:28:34;20.90;99.90
42099;DHT22;27758;55.900;8.516;2022-07-24T14:31:01;20.90;99.90
42099;DHT22;27758;55.900;8.516;2022-07-24T14:33:27;21.00;99.90
42099;DHT22;27758;55.900;8.516;2022-07-24T14:35:53;21.10;99.90
42099;DHT22;27758;55.900;8.516;2022-07-24T14:38:19;21.00;99.90
42099;DHT22;27758;55.900;8.516;2022-07-24T14:40:45;20.90;99.90
42099;DHT22;27758;55.900;8.516;2022-07-24T14:43:11;20.90;99.90
42099;DHT22;27758;55.900;8.516;2022-07-24T14:45:37;20.70;99.90
42099;DHT22;27758;55.900;8.516;2022-07-24T14:48:03;20.70;99.90
42099;DHT22;27758;55.900;8.516;2022-07-24T14:50:29;20.60;99.90
42099;DHT22;27758;55.900;8.516;2022-07-24T14:52:58;20.60;99.90
42099;DHT22;27758;55.900;8.516;2022-07-24T14:55:24;20.50;99.90
42099;DHT22;27758;55.900;8.516;2022-07-24T14:57:50;20.40;99.90
42099;DHT22;27758;55.900;8.516;2022-07-24T15:00:16;20.40;99.90
42099;DHT22;27758;55.900;8.516;2022-07-24T15:02:42;20.50;99.90
42099;DHT22;27758;55.900;8.516;2022-07-24T15:05:08;20.50;99.90
42099;DHT22;27758;55.900;8.516;2022-07-24T15:07:34;20.60;99.90
42099;DHT22;27758;55.900;8.516;2022-07-24T15:10:00;20.50;99.90
42099;DHT22;27758;55.900;8.516;2022-07-24T15:12:25;20.50;99.90
42099;DHT22;27758;55.900;8.516;2022-07-24T15:14:51;20.50;99.90
42099;DHT22;27758;55.900;8.516;2022-07-24T15:17:18;20.60;99.90
42099;DHT22;27758;55.900;8.516;2022-07-24T15:19:43;20.70;99.90
42099;DHT22;27758;55.900;8.516;2022-07-24T15:22:09;20.70;99.90
42099;DHT22;27758;55.900;8.516;2022-07-24T15:24:35;20.60;99.90
42099;DHT22;27758;55.900;8.516;2022-07-24T15:27:01;20.40;99.90
42099;DHT22;27758;55.900;8.516;2022-07-24T15:29:27;20.30;99.90
42099;DHT22;27758;55.900;8.516;2022-07-24T15:31:53;20.20;99.90
42099;DHT22;27758;55.900;8.516;2022-07-24T15:34:19;20.10;99.90
42099;DHT22;27758;55.900;8.516;2022-07-24T15:36:44;20.00;99.90
42099;DHT22;27758;55.900;8.516;2022-07-24T15:39:11;20.00;99.90
42099;DHT22;27758;55.900;8.516;2022-07-24T15:41:37;19.90;99.90
42099;DHT22;27758;55.900;8.516;2022-07-24T15:44:04;19.70;99.90
42099;DHT22;27758;55.900;8.516;2022-07-24T15:46:30;19.50;99.90
42099;DHT22;27758;55.900;8.516;2022-07-24T15:48:56;19.50;99.90
42099;DHT22;27758;55.900;8.516;2022-07-24T15:51:22;19.50;99.90
42099;DHT22;27758;55.900;8.516;2022-07-24T15:53:48;19.60;99.90
42099;DHT22;27758;55.900;8.516;2022-07-24T15:56:14;19.70;99.90
42099;DHT22;27758;55.900;8.516;2022-07-24T15:58:40;19.80;99.90
42099;DHT22;27758;55.900;8.516;2022-07-24T16:01:06;19.80;99.90